Aviation Digital Data Service (ADDS)

Output produced by TAFs form (1740 UTC 21 April 2018)
found at http://aviationweather.gov/adds/tafs/
 
TAF RJEC 211709Z 2118/2300 32006KT 9999 FEW008 BKN015 
     TEMPO 2118/2121 2000 BR 
     BECMG 2215/2218 18005KT
       
TAF RJCH 211712Z 2118/2300 03004KT 9999 FEW020 SCT040 
     BECMG 2121/2123 21005KT 
     BECMG 2212/2215 06007KT
       
TAF RJCK 211711Z 2118/2300 36011KT 9999 FEW030 
     BECMG 2203/2205 20018KT 
     BECMG 2209/2212 20004KT 
     TEMPO 2212/2218 FEW005 BKN008
       
TAF RJCB 211707Z 2118/2300 34006KT 9999 FEW050 
     BECMG 2203/2205 15012KT 
     TEMPO 2209/2215 FEW002 BKN005 
     TEMPO 2215/2221 1500 BR FEW001 BKN003 
     TEMPO 2221/2300 3000 BR FEW003 BKN006
       
TAF RJCM 211714Z 2118/2300 01011KT 9999 FEW008 BKN015 
     TEMPO 2118/2202 FEW005 BKN008 
     BECMG 2209/2212 17005KT
       
RJSA 211200Z 24010KT CAVOK 16/05 Q1014
TAF RJSA 211705Z 2118/2300 24010KT 9999 FEW030 
     BECMG 2200/2202 04008KT 
     TEMPO 2215/2221 1500 BR FEW001 BKN003
       
RJSK 211200Z VRB02KT CAVOK 16/05 Q1018
TAF RJSK 211715Z 2118/2300 30005KT 9999 FEW030 
     BECMG 2120/2122 14004KT 
     TEMPO 2120/2200 3000 BR FEW005 BKN008 
     BECMG 2200/2202 30010KT 
     BECMG 2209/2212 14006KT
       
RJSS 211200Z VRB01KT 8000 NSC 14/12 Q1016
TAF RJSS 211706Z 2118/2300 03003KT 9999 FEW030 
     BECMG 2123/2201 13010KT 
     BECMG 2206/2209 05004KT 
     TEMPO 2218/2300 4000 -RA BR FEW005 BKN008 BKN015
       
TAF RJSF 211705Z 2118/2300 35008KT 9999 FEW030 
     TEMPO 2215/2221 3000 BR FEW001 BKN003
       
RJSN 211200Z 19005KT CAVOK 19/05 Q1019
TAF RJSN 211706Z 2118/2300 20006KT 9999 FEW030 
     BECMG 2201/2203 26010KT 
     BECMG 2206/2209 02006KT